M I D A S
Marine Information and Data Acquisition System
Tripno 1915 of the Zeeleeuw from 2010-07-07 06:55:27 to 2010-07-07 13:12:15
Back to CruiseResearch ActivitiesStationsMapUnderway DataData graphs

EquipmentUnitsComment
TimeDGPSUTC
LatitudeDGPSDM.mWGS84
LongitudeDGPSDM.mWGS84
HeadingGyrodeg 
SOGDGPSknotsSpeed over ground
COGDGPSdegCourse over ground
DepthEcho soundermeters200 kHz
Missing or incorrect values are displayed as -999
Navigation data collected by the RV Zeeleeuw from 2010-07-07 06:49:23 to 2010-07-07 13:18:48
                                                                                    Next 1000 lines
Time Latitude Longitude Heading SOG COG Depth
2010-07-07 06:49:33 51°13.662 2°55.957 115.8 1 285 7.9
2010-07-07 06:49:38 51°13.663 2°55.954 115.5 1.4 293 7.9
2010-07-07 06:49:43 51°13.664 2°55.95 115.7 1.8 294 8
2010-07-07 06:49:47 51°13.665 2°55.947 116.5 2.1 295 8.1
2010-07-07 06:49:54 51°13.667 2°55.94 117.5 2.5 296 -999
2010-07-07 06:49:59 51°13.668 2°55.935 118.2 2.7 298 -999
2010-07-07 06:50:05 51°13.671 2°55.928 118.2 3 297 -999
2010-07-07 06:50:11 51°13.673 2°55.92 117.8 3.3 299 -999
2010-07-07 06:50:17 51°13.676 2°55.912 117.9 3.6 298 -999
2010-07-07 06:50:22 51°13.679 2°55.904 118.4 3.9 299 -999
2010-07-07 06:50:27 51°13.682 2°55.896 118.5 4.1 298 -999
2010-07-07 06:50:31 51°13.684 2°55.89 118.6 4.2 299 -999
2010-07-07 06:50:37 51°13.688 2°55.88 118.6 4.3 298 -999
2010-07-07 06:50:42 51°13.691 2°55.871 119.1 4.3 299 -999
2010-07-07 06:50:47 51°13.693 2°55.863 119.6 4.3 299 -999
2010-07-07 06:50:51 51°13.696 2°55.856 120.5 4.4 300 -999
2010-07-07 06:50:57 51°13.699 2°55.846 121.3 4.4 301 -999
2010-07-07 06:51:02 51°13.703 2°55.837 122.5 4.6 301 -999
2010-07-07 06:51:07 51°13.707 2°55.829 123.2 4.7 303 -999
2010-07-07 06:51:11 51°13.71 2°55.821 124 4.9 303 -999
2010-07-07 06:51:17 51°13.714 2°55.81 124.7 5 304 -999
2010-07-07 06:51:22 51°13.718 2°55.801 125.6 5.1 304 -999
2010-07-07 06:51:27 51°13.723 2°55.791 126.1 5.2 306 -999
2010-07-07 06:51:32 51°13.727 2°55.782 127.1 5.2 306 -999
2010-07-07 06:51:37 51°13.731 2°55.773 128.6 5.1 308 -999
2010-07-07 06:51:42 51°13.736 2°55.765 130.2 5.1 309 -999
2010-07-07 06:51:47 51°13.74 2°55.756 131.9 5.1 311 -999
2010-07-07 06:51:52 51°13.745 2°55.748 133.6 5.1 312 -999
2010-07-07 06:51:57 51°13.75 2°55.74 135.1 5.1 313 -999
2010-07-07 06:52:02 51°13.755 2°55.731 136.2 5.2 315 -999
2010-07-07 06:52:07 51°13.76 2°55.723 137.3 5.3 316 -999
2010-07-07 06:52:12 51°13.766 2°55.715 138.3 5.4 317 -999
2010-07-07 06:52:17 51°13.772 2°55.707 139.4 5.4 318 -999
2010-07-07 06:52:22 51°13.777 2°55.699 140.5 5.4 319 -999
2010-07-07 06:52:27 51°13.783 2°55.692 142.1 5.3 321 -999
2010-07-07 06:52:31 51°13.787 2°55.686 144.1 5.2 323 -999
2010-07-07 06:52:37 51°13.794 2°55.679 146.4 5.2 325 -999
2010-07-07 06:52:42 51°13.8 2°55.673 148.9 5.1 327 -999
2010-07-07 06:52:47 51°13.806 2°55.667 151.5 5.1 330 -999
2010-07-07 06:52:51 51°13.811 2°55.663 154.1 5 333 -999
2010-07-07 06:52:57 51°13.819 2°55.658 156.6 5 335 -999
2010-07-07 06:53:02 51°13.825 2°55.653 158.8 5 337 -999
2010-07-07 06:53:07 51°13.832 2°55.649 160.8 5 338 -999
2010-07-07 06:53:12 51°13.838 2°55.645 162.7 5 340 -999
2010-07-07 06:53:17 51°13.845 2°55.642 164.7 5 342 -999
2010-07-07 06:53:22 51°13.852 2°55.639 167.4 5 344 -999
2010-07-07 06:53:27 51°13.858 2°55.637 169.2 4.9 346 -999
2010-07-07 06:53:31 51°13.864 2°55.635 171.9 4.9 349 -999
2010-07-07 06:53:37 51°13.872 2°55.633 174.7 4.9 351 -999
2010-07-07 06:53:42 51°13.878 2°55.632 177.6 4.9 355 -999
2010-07-07 06:53:47 51°13.885 2°55.632 180.6 4.9 358 -999
2010-07-07 06:53:52 51°13.892 2°55.632 183.7 4.9 -999 -999
2010-07-07 06:53:57 51°13.899 2°55.633 186.7 4.8 4 -999
2010-07-07 06:54:02 51°13.905 2°55.634 189.9 4.8 7 -999
2010-07-07 06:54:07 51°13.912 2°55.636 193.2 4.7 10 -999
2010-07-07 06:54:12 51°13.917 2°55.638 196.6 4.4 12 -999
2010-07-07 06:54:17 51°13.923 2°55.641 199.5 4 15 -999
2010-07-07 06:54:22 51°13.927 2°55.643 202 3.6 19 -999
2010-07-07 06:54:27 51°13.931 2°55.646 205 3.2 19 -999
2010-07-07 06:54:31 51°13.934 2°55.648 207.8 2.8 25 -999
2010-07-07 06:54:36 51°13.937 2°55.65 210 2.3 27 13.4
2010-07-07 06:54:41 51°13.939 2°55.652 212 1.7 29 -999
2010-07-07 06:54:47 51°13.94 2°55.653 215.1 1.1 30 14.1
2010-07-07 06:54:51 51°13.941 2°55.653 219.3 0.4 25 -999
2010-07-07 06:54:57 51°13.941 2°55.653 223.6 0.3 265 -999
2010-07-07 06:55:02 51°13.94 2°55.651 228.3 0.9 240 -999
2010-07-07 06:55:07 51°13.939 2°55.647 234.1 1.5 243 -999
2010-07-07 06:55:11 51°13.938 2°55.644 239.6 2.1 250 13.4
2010-07-07 06:55:16 51°13.937 2°55.638 245.6 2.5 256 13.2
2010-07-07 06:55:21 51°13.937 2°55.632 251.7 2.9 264 13.2
2010-07-07 06:55:26 51°13.937 2°55.624 259.5 3.3 272 13.6
2010-07-07 06:55:31 51°13.938 2°55.617 265.9 3.6 278 13.8
2010-07-07 06:55:35 51°13.939 2°55.61 274.4 3.9 287 13.7
2010-07-07 06:55:41 51°13.942 2°55.6 284.6 4.2 294 13
2010-07-07 06:55:46 51°13.946 2°55.592 293 4.4 303 13.4
2010-07-07 06:55:50 51°13.949 2°55.586 299.9 4.7 311 13
2010-07-07 06:55:55 51°13.955 2°55.578 310.4 5 317 12.8
2010-07-07 06:55:59 51°13.96 2°55.572 317.3 5.4 325 12.8
2010-07-07 06:56:05 51°13.968 2°55.564 325.3 5.8 327 13
2010-07-07 06:56:10 51°13.976 2°55.557 328.2 6.2 330 12.9
2010-07-07 06:56:15 51°13.983 2°55.55 329.8 6.6 330 12.9
2010-07-07 06:56:19 51°13.99 2°55.544 331 6.9 331 12.9
2010-07-07 06:56:24 51°13.999 2°55.536 331.4 7.2 330 12.9
2010-07-07 06:56:29 51°14.008 2°55.527 330.9 7.6 329 12.9
2010-07-07 06:56:29 51°14.008 2°55.527 330.8 7.6 329 12.9
2010-07-07 06:56:39 51°14.027 2°55.509 331.3 8 330 12.9
2010-07-07 06:56:43 51°14.035 2°55.501 331.6 8.2 329 12.9
2010-07-07 06:56:46 51°14.041 2°55.496 331.8 8.3 330 12.9
2010-07-07 06:56:53 51°14.055 2°55.483 332.6 8.5 331 12.9
2010-07-07 06:56:58 51°14.066 2°55.474 332.8 8.6 330 13
2010-07-07 06:57:03 51°14.076 2°55.464 333.2 8.7 331 12.9
2010-07-07 06:57:03 51°14.076 2°55.464 333.3 8.7 331 12.9
2010-07-07 06:57:15 51°14.103 2°55.442 334 8.9 332 12.9
2010-07-07 06:57:20 51°14.114 2°55.433 334.2 9 332 12.9
2010-07-07 06:57:25 51°14.125 2°55.424 334.8 9.1 333 12.9
2010-07-07 06:57:30 51°14.136 2°55.415 335.4 9.4 333 12.9
2010-07-07 06:57:35 51°14.148 2°55.405 335.1 9.5 333 12.8
2010-07-07 06:57:40 51°14.16 2°55.395 335 9.6 333 12.8
2010-07-07 06:57:56 51°14.2 2°55.363 335 10.4 333 12.7
2010-07-07 06:58:27 51°14.283 2°55.291 333.4 11.2 331 12.5
2010-07-07 06:58:37 51°14.31 2°55.267 332.8 11.3 331 12.7
2010-07-07 06:58:39 51°14.316 2°55.262 332.8 11.4 331 12.8
2010-07-07 06:58:47 51°14.338 2°55.242 333 11.4 331 12.5
2010-07-07 06:58:51 51°14.349 2°55.233 333.3 11.4 331 12.8
2010-07-07 06:58:57 51°14.366 2°55.217 332.8 11.5 330 12.6
2010-07-07 06:59:02 51°14.38 2°55.204 331.9 11.7 330 12.7
2010-07-07 06:59:07 51°14.394 2°55.191 331.8 12 330 12.7
2010-07-07 06:59:12 51°14.409 2°55.177 331.7 12.3 330 12.7
2010-07-07 06:59:17 51°14.424 2°55.164 331.8 12.5 330 12.8
2010-07-07 06:59:22 51°14.439 2°55.15 332.5 12.7 331 12.7
2010-07-07 06:59:27 51°14.455 2°55.136 332.8 12.8 331 12.2
2010-07-07 06:59:32 51°14.47 2°55.122 332.1 12.9 331 12.1
2010-07-07 06:59:37 51°14.486 2°55.109 331.6 13.1 332 12
2010-07-07 06:59:42 51°14.503 2°55.095 331.9 13.1 332 11.7
2010-07-07 06:59:47 51°14.519 2°55.082 332 13.2 333 12
2010-07-07 06:59:52 51°14.536 2°55.07 333.4 13.4 338 11.9
2010-07-07 06:59:57 51°14.553 2°55.059 335.4 13.4 338 12.7
2010-07-07 07:00:02 51°14.571 2°55.048 335.7 13.6 339 13.7
2010-07-07 07:00:07 51°14.589 2°55.037 334.7 13.6 338 13.4
2010-07-07 07:00:12 51°14.607 2°55.031 338.5 13.7 349 12.4
2010-07-07 07:00:17 51°14.626 2°55.029 343.9 13.5 356 11.7
2010-07-07 07:00:22 51°14.644 2°55.034 353.5 13.4 9 11.8
2010-07-07 07:00:27 51°14.662 2°55.043 5 13.5 16 11.7
2010-07-07 07:00:31 51°14.676 2°55.052 14.9 13.8 24 11.6
2010-07-07 07:00:37 51°14.697 2°55.069 21.2 13.9 29 11.7
2010-07-07 07:00:42 51°14.712 2°55.087 28.1 14.1 35 11.5
2010-07-07 07:00:47 51°14.728 2°55.107 35.4 14.2 39 11.4
2010-07-07 07:00:51 51°14.74 2°55.124 39.5 14.3 38 11.4
2010-07-07 07:00:57 51°14.759 2°55.147 39.3 14.5 38 11.3
2010-07-07 07:01:03 51°14.779 2°55.17 38.5 14.5 36 11.2
2010-07-07 07:01:07 51°14.791 2°55.186 37 14.6 36 11.2
2010-07-07 07:01:11 51°14.805 2°55.201 36.4 14.7 35 11.2
2010-07-07 07:01:17 51°14.824 2°55.224 35.7 14.7 37 11.1
2010-07-07 07:01:22 51°14.841 2°55.242 35.5 14.6 34 11.2
2010-07-07 07:01:27 51°14.858 2°55.261 34.9 14.6 35 11
2010-07-07 07:01:31 51°14.872 2°55.274 33.3 14.7 31 11.1
2010-07-07 07:01:37 51°14.892 2°55.296 32.6 14.6 34 10.9
2010-07-07 07:01:42 51°14.91 2°55.312 31.6 14.6 30 11
2010-07-07 07:01:47 51°14.927 2°55.33 30.8 14.7 33 11.1
2010-07-07 07:01:51 51°14.941 2°55.342 30.6 14.6 29 10.8
2010-07-07 07:01:57 51°14.961 2°55.362 30.2 14.6 32 10.8
2010-07-07 07:02:02 51°14.979 2°55.378 30 14.5 29 10.8
2010-07-07 07:02:07 51°14.997 2°55.395 29.7 14.6 31 10.6
2010-07-07 07:02:11 51°15.01 2°55.408 29.6 14.6 30 10.6
2010-07-07 07:02:17 51°15.031 2°55.427 29.3 14.6 31 10.5
2010-07-07 07:02:22 51°15.049 2°55.444 29.7 14.6 30 10.6
2010-07-07 07:02:27 51°15.066 2°55.46 29.5 14.6 30 10.6
2010-07-07 07:02:31 51°15.08 2°55.473 29.6 14.6 30 10.2
2010-07-07 07:02:37 51°15.101 2°55.493 29.1 14.6 30 10.4
2010-07-07 07:02:42 51°15.119 2°55.509 29.2 14.6 30 10.4
2010-07-07 07:02:47 51°15.136 2°55.525 29.2 14.6 30 10.4
2010-07-07 07:02:52 51°15.154 2°55.542 29.5 14.7 31 10.4
2010-07-07 07:02:57 51°15.171 2°55.558 29.3 14.6 30 10.3
2010-07-07 07:03:02 51°15.189 2°55.574 29.4 14.6 30 10.4
2010-07-07 07:03:07 51°15.206 2°55.59 29.4 14.6 31 10.1
2010-07-07 07:03:12 51°15.224 2°55.607 29.6 14.6 30 10.2
2010-07-07 07:03:17 51°15.241 2°55.623 29.8 14.6 31 10.1
2010-07-07 07:03:22 51°15.259 2°55.639 29.3 14.6 29 10
2010-07-07 07:03:27 51°15.276 2°55.656 30 14.6 32 10.1
2010-07-07 07:03:32 51°15.293 2°55.672 29.6 14.6 30 10
2010-07-07 07:03:37 51°15.309 2°55.688 29.8 13.6 31 9.9
2010-07-07 07:03:42 51°15.325 2°55.702 29.8 12.8 31 9.9
2010-07-07 07:03:47 51°15.339 2°55.717 29.8 12.4 32 9.9
2010-07-07 07:03:52 51°15.353 2°55.731 30.2 11.4 34 10.1
2010-07-07 07:03:57 51°15.365 2°55.744 31.7 10.8 34 10.1
2010-07-07 07:04:02 51°15.376 2°55.758 32.9 10.1 38 10
2010-07-07 07:04:07 51°15.386 2°55.77 34.6 9.6 38 9.9
2010-07-07 07:04:11 51°15.394 2°55.781 37.3 8.9 41 9.8
2010-07-07 07:04:17 51°15.404 2°55.796 40 8.4 42 9.9
2010-07-07 07:04:22 51°15.412 2°55.808 42 7.9 44 9.9
2010-07-07 07:04:27 51°15.42 2°55.819 42.6 7.6 43 9.9
2010-07-07 07:04:32 51°15.427 2°55.83 40.9 7.2 41 9.9
2010-07-07 07:04:37 51°15.435 2°55.84 38.1 6.9 39 9.9
2010-07-07 07:04:42 51°15.442 2°55.849 35.2 6.7 38 9.7
2010-07-07 07:04:47 51°15.449 2°55.857 32 6.4 35 9.7
2010-07-07 07:04:51 51°15.455 2°55.863 29 6.2 33 9.8
2010-07-07 07:04:57 51°15.463 2°55.871 26 6 32 9.8
2010-07-07 07:05:02 51°15.47 2°55.878 23.4 5.8 30 9.8
2010-07-07 07:05:07 51°15.477 2°55.884 21.1 5.6 29 9.9
2010-07-07 07:05:12 51°15.484 2°55.889 18.6 5.5 28 9.8
2010-07-07 07:05:17 51°15.491 2°55.894 16.7 5.3 26 9.8
2010-07-07 07:05:22 51°15.497 2°55.899 14.7 5.2 24 9.8
2010-07-07 07:05:27 51°15.504 2°55.903 12.6 5 22 9.8
2010-07-07 07:05:32 51°15.51 2°55.907 10.2 4.9 22 9.9
2010-07-07 07:05:37 51°15.516 2°55.91 6.6 4.6 17 9.7
2010-07-07 07:05:42 51°15.522 2°55.913 3 4.5 16 9.9
2010-07-07 07:05:47 51°15.528 2°55.915 359.4 4.4 14 9.9
2010-07-07 07:05:52 51°15.534 2°55.917 356.5 4.3 13 9.8
2010-07-07 07:05:57 51°15.54 2°55.919 355.3 4.3 12 9.7
2010-07-07 07:06:02 51°15.545 2°55.921 355.5 4.3 14 9.7
2010-07-07 07:06:07 51°15.551 2°55.924 357.2 4.3 15 9.9
2010-07-07 07:06:12 51°15.557 2°55.926 358.9 4.3 15 9.8
2010-07-07 07:06:17 51°15.563 2°55.929 359.4 4.3 15 9.9
2010-07-07 07:06:22 51°15.569 2°55.931 358.7 4.3 13 9.9
2010-07-07 07:06:27 51°15.574 2°55.933 357.3 4.3 12 9.9
2010-07-07 07:06:32 51°15.58 2°55.934 355.2 4.3 10 10
2010-07-07 07:06:37 51°15.586 2°55.936 352.8 4.2 8 9.9
2010-07-07 07:06:42 51°15.592 2°55.937 350.4 4.2 7 10
2010-07-07 07:06:47 51°15.597 2°55.938 347.9 4.1 6 9.9
2010-07-07 07:06:52 51°15.603 2°55.938 346.4 4.1 5 10.1
2010-07-07 07:06:57 51°15.609 2°55.939 346.2 4 5 10
2010-07-07 07:07:02 51°15.614 2°55.94 346.7 4 7 10
2010-07-07 07:07:07 51°15.62 2°55.941 347.7 3.9 6 10
2010-07-07 07:07:11 51°15.624 2°55.942 349.4 4 10 10.1
2010-07-07 07:07:17 51°15.63 2°55.944 351.6 3.9 12 10.1
2010-07-07 07:07:22 51°15.635 2°55.947 354.5 3.9 15 10.1
2010-07-07 07:07:27 51°15.64 2°55.949 357.5 3.8 17 10.2
2010-07-07 07:07:32 51°15.645 2°55.952 1.3 3.8 20 10.1
2010-07-07 07:07:37 51°15.65 2°55.955 5.2 3.8 23 10.1
2010-07-07 07:07:42 51°15.655 2°55.959 9.1 3.8 27 10.2
2010-07-07 07:07:47 51°15.66 2°55.964 13.3 3.8 29 10.2
2010-07-07 07:07:51 51°15.663 2°55.967 17.2 3.8 33 10.1
2010-07-07 07:07:57 51°15.669 2°55.973 20.4 3.8 35 10.1
2010-07-07 07:08:02 51°15.673 2°55.978 25.2 3.8 38 10.2
2010-07-07 07:08:07 51°15.677 2°55.984 29.2 3.8 40 10.2
2010-07-07 07:08:11 51°15.68 2°55.988 33 3.8 44 10.3
2010-07-07 07:08:17 51°15.684 2°55.996 36.6 3.8 46 10.2
2010-07-07 07:08:22 51°15.688 2°56.002 40.2 3.8 49 10.1
2010-07-07 07:08:27 51°15.691 2°56.008 44.1 3.8 51 10.1
2010-07-07 07:08:32 51°15.694 2°56.015 47.8 3.7 53 10.2
2010-07-07 07:08:37 51°15.697 2°56.022 51.3 3.7 56 10.2
2010-07-07 07:08:42 51°15.699 2°56.028 54.6 3.7 56 10.2
2010-07-07 07:08:47 51°15.702 2°56.036 57.1 3.7 58 10.2
2010-07-07 07:08:51 51°15.705 2°56.041 58.4 3.7 58 10.5
2010-07-07 07:08:57 51°15.708 2°56.049 58.6 3.7 58 10.2
2010-07-07 07:09:02 51°15.711 2°56.056 57.8 3.6 57 10.2
2010-07-07 07:09:07 51°15.713 2°56.063 56.3 3.6 56 10.2
2010-07-07 07:09:12 51°15.716 2°56.07 54.1 3.7 54 10.2
2010-07-07 07:09:17 51°15.719 2°56.076 51.5 3.7 54 10.2
2010-07-07 07:09:22 51°15.722 2°56.083 48.9 3.7 53 10.1
2010-07-07 07:09:27 51°15.726 2°56.089 46.5 3.7 51 10.2
2010-07-07 07:09:32 51°15.729 2°56.095 44.9 3.7 51 10.2
2010-07-07 07:09:37 51°15.732 2°56.102 44 3.7 52 10.2
2010-07-07 07:09:42 51°15.735 2°56.108 43.9 3.7 52 10.3
2010-07-07 07:09:47 51°15.738 2°56.114 44.4 3.6 52 10.3
2010-07-07 07:09:52 51°15.741 2°56.121 45.3 3.7 52 10.2
2010-07-07 07:09:57 51°15.744 2°56.127 46.3 3.6 53 10.2
2010-07-07 07:10:02 51°15.747 2°56.134 47.5 3.6 54 10.2
2010-07-07 07:10:07 51°15.75 2°56.14 49 3.6 54 10.2
2010-07-07 07:10:12 51°15.753 2°56.147 50.7 3.6 55 10.2
2010-07-07 07:10:17 51°15.756 2°56.153 52.4 3.6 55 10.2
2010-07-07 07:10:22 51°15.759 2°56.16 53.1 3.5 56 10.2
2010-07-07 07:10:27 51°15.762 2°56.166 52.9 3.5 55 10.3
2010-07-07 07:10:32 51°15.764 2°56.172 51.7 3.4 54 10.2
2010-07-07 07:10:37 51°15.767 2°56.178 49.9 3.4 53 10.3
2010-07-07 07:10:42 51°15.77 2°56.184 47.7 3.3 52 10.3
2010-07-07 07:10:47 51°15.773 2°56.19 45.3 3.3 52 10.2
2010-07-07 07:10:52 51°15.776 2°56.195 42.9 3.3 50 10.2
2010-07-07 07:10:57 51°15.779 2°56.201 40.7 3.3 50 10.2
2010-07-07 07:11:02 51°15.782 2°56.206 38.8 3.3 48 10.2
2010-07-07 07:11:07 51°15.785 2°56.212 37.8 3.3 49 10.2
2010-07-07 07:11:12 51°15.788 2°56.217 37.5 3.3 48 10.3
2010-07-07 07:11:17 51°15.791 2°56.223 37.7 3.3 49 10.3
2010-07-07 07:11:22 51°15.794 2°56.228 38.6 3.3 49 10.3
2010-07-07 07:11:27 51°15.797 2°56.234 39.8 3.3 51 10.3
2010-07-07 07:11:32 51°15.799 2°56.239 42.4 3.3 51 10.3
2010-07-07 07:11:37 51°15.802 2°56.245 44.3 3.3 54 10.4
2010-07-07 07:11:42 51°15.805 2°56.251 47.5 3.3 55 10.4
2010-07-07 07:11:47 51°15.807 2°56.257 50.2 3.3 55 10.3
2010-07-07 07:11:52 51°15.81 2°56.263 51.9 3.2 56 10.4
2010-07-07 07:11:57 51°15.812 2°56.269 52.7 3.2 56 10.3
2010-07-07 07:12:02 51°15.815 2°56.275 52.7 3.2 56 10.2
2010-07-07 07:12:07 51°15.817 2°56.28 52 3.2 55 10.3
2010-07-07 07:12:12 51°15.82 2°56.286 50.2 3.1 56 10.4
2010-07-07 07:12:17 51°15.822 2°56.292 48.5 3.1 54 10.4
2010-07-07 07:12:22 51°15.825 2°56.297 46 3.1 52 10.4
2010-07-07 07:12:27 51°15.828 2°56.303 44.4 3.1 52 10.2
2010-07-07 07:12:32 51°15.83 2°56.308 43.6 3.2 52 10.2
2010-07-07 07:12:37 51°15.833 2°56.314 42.8 3.2 52 10.3
2010-07-07 07:12:42 51°15.836 2°56.319 42.2 3.2 52 10.4
2010-07-07 07:12:47 51°15.839 2°56.324 41.8 3.1 51 10.4
2010-07-07 07:12:51 51°15.841 2°56.329 41.5 3.2 51 10.4
2010-07-07 07:12:57 51°15.844 2°56.335 41.5 3.2 51 10.4
2010-07-07 07:13:02 51°15.847 2°56.341 41.4 3.2 50 10.3
2010-07-07 07:13:07 51°15.85 2°56.346 41.3 3.2 52 10.3
2010-07-07 07:13:12 51°15.853 2°56.352 41.3 3.2 51 10.3
2010-07-07 07:13:17 51°15.856 2°56.358 41.1 3.3 51 10.3
2010-07-07 07:13:23 51°15.859 2°56.364 41.2 3.3 50 10.3
2010-07-07 07:13:27 51°15.861 2°56.369 40.8 3.3 51 10.4
2010-07-07 07:13:31 51°15.864 2°56.373 40.4 3.3 51 10.3
2010-07-07 07:13:37 51°15.867 2°56.38 40.3 3.3 51 10.5
2010-07-07 07:13:42 51°15.87 2°56.385 40.7 3.3 51 10.4
2010-07-07 07:13:47 51°15.873 2°56.391 41.4 3.3 53 10.4
2010-07-07 07:13:52 51°15.876 2°56.397 42.3 3.3 51 10.4
2010-07-07 07:13:57 51°15.878 2°56.403 43.6 3.3 53 10.7
2010-07-07 07:14:02 51°15.881 2°56.409 44.8 3.3 53 10.4
2010-07-07 07:14:07 51°15.884 2°56.415 45.8 3.3 54 10.4
2010-07-07 07:14:12 51°15.887 2°56.421 47.5 3.3 54 10.5
2010-07-07 07:14:17 51°15.889 2°56.427 48.7 3.4 56 10.5
2010-07-07 07:14:22 51°15.892 2°56.433 50.6 3.4 56 10.4
2010-07-07 07:14:27 51°15.894 2°56.439 52 3.4 58 10.5
2010-07-07 07:14:31 51°15.896 2°56.444 53.6 3.4 57 10.4
2010-07-07 07:14:37 51°15.899 2°56.452 54.7 3.4 58 10.3
2010-07-07 07:14:42 51°15.902 2°56.459 56.1 3.4 59 10.4
2010-07-07 07:14:47 51°15.904 2°56.465 56.7 3.4 59 10.4
2010-07-07 07:14:52 51°15.907 2°56.471 57.7 3.4 60 10.5
2010-07-07 07:14:57 51°15.909 2°56.478 58.9 3.4 59 10.4
2010-07-07 07:15:02 51°15.911 2°56.484 60.1 3.4 61 10.4
2010-07-07 07:15:07 51°15.914 2°56.491 61.1 3.4 61 10.4
2010-07-07 07:15:12 51°15.916 2°56.498 62.4 3.4 62 10.5
2010-07-07 07:15:17 51°15.918 2°56.504 63.7 3.4 62 10.4
2010-07-07 07:15:22 51°15.92 2°56.511 65.3 3.4 64 10.4
2010-07-07 07:15:27 51°15.922 2°56.518 66.7 3.4 64 10.4
2010-07-07 07:15:32 51°15.924 2°56.525 68.7 3.4 65 10.4
2010-07-07 07:15:37 51°15.926 2°56.532 69.9 3.4 66 10.4
2010-07-07 07:15:42 51°15.928 2°56.539 71.5 3.4 67 10.4
2010-07-07 07:15:47 51°15.93 2°56.546 73.2 3.4 67 10.4
2010-07-07 07:15:51 51°15.931 2°56.551 74.8 3.3 68 10.4
2010-07-07 07:15:57 51°15.933 2°56.559 75.6 3.3 68 10.4
2010-07-07 07:16:02 51°15.935 2°56.566 75.8 3.3 68 10.3
2010-07-07 07:16:07 51°15.937 2°56.573 75.7 3.3 68 10.3
2010-07-07 07:16:12 51°15.939 2°56.58 75.1 3.3 68 10.4
2010-07-07 07:16:17 51°15.94 2°56.586 74.6 3.3 68 10.4
2010-07-07 07:16:23 51°15.942 2°56.595 74.1 3.3 67 10.4
2010-07-07 07:16:27 51°15.944 2°56.6 73.6 3.4 67 10.4
2010-07-07 07:16:31 51°15.945 2°56.606 73.2 3.4 68 10.4
2010-07-07 07:16:37 51°15.948 2°56.614 72.9 3.4 67 10.4
2010-07-07 07:16:42 51°15.949 2°56.621 72.7 3.4 68 10.3
2010-07-07 07:16:47 51°15.951 2°56.628 72.5 3.4 67 10.4
2010-07-07 07:16:52 51°15.953 2°56.635 72.3 3.4 68 10.3
2010-07-07 07:16:57 51°15.955 2°56.641 72.2 3.3 67 10.4
2010-07-07 07:17:02 51°15.957 2°56.648 72.1 3.3 67 10.4
2010-07-07 07:17:07 51°15.959 2°56.655 72 3.3 66 10.3
2010-07-07 07:17:12 51°15.96 2°56.661 71.9 3.3 68 10.2
2010-07-07 07:17:17 51°15.962 2°56.668 71.8 3.2 67 10.4
2010-07-07 07:17:22 51°15.964 2°56.674 71.7 3.3 68 10.4
2010-07-07 07:17:27 51°15.966 2°56.681 71.7 3.3 68 10.4
2010-07-07 07:17:32 51°15.968 2°56.687 71.5 3.2 68 10.4
2010-07-07 07:17:37 51°15.969 2°56.694 71.3 3.2 67 10.4
2010-07-07 07:17:42 51°15.971 2°56.7 71.2 3.2 67 10.4
2010-07-07 07:17:47 51°15.973 2°56.707 71.2 3.2 67 10.3
2010-07-07 07:17:51 51°15.974 2°56.712 70.8 3.2 67 10.4
2010-07-07 07:17:57 51°15.977 2°56.72 70.3 3.2 66 10.4
2010-07-07 07:18:02 51°15.978 2°56.726 69.8 3.2 66 10.4
2010-07-07 07:18:07 51°15.98 2°56.733 69.1 3.2 65 10.3
2010-07-07 07:18:12 51°15.982 2°56.739 68.5 3.1 66 10.3
2010-07-07 07:18:17 51°15.984 2°56.745 67.8 3.1 65 10.4
2010-07-07 07:18:23 51°15.986 2°56.753 67.1 3.1 65 10.4
2010-07-07 07:18:27 51°15.987 2°56.758 66.7 3.1 64 10.2
2010-07-07 07:18:31 51°15.989 2°56.763 66.4 3.1 64 10.2
2010-07-07 07:18:37 51°15.991 2°56.77 66.2 3.1 63 10.2
2010-07-07 07:18:42 51°15.993 2°56.776 66.1 3.1 64 10.2
2010-07-07 07:18:47 51°15.995 2°56.782 66 3.1 64 10.3
2010-07-07 07:18:52 51°15.997 2°56.789 65.8 3.1 64 10.2
2010-07-07 07:18:57 51°15.998 2°56.795 65.8 3.1 65 10.2
2010-07-07 07:19:02 51°16 2°56.801 65.7 3.1 64 10.3
2010-07-07 07:19:07 51°16.002 2°56.807 65.6 3.1 64 10.4
2010-07-07 07:19:12 51°16.004 2°56.813 65.6 3.1 63 10.2
2010-07-07 07:19:17 51°16.006 2°56.819 65.5 3.1 64 10.4
2010-07-07 07:19:22 51°16.008 2°56.826 65.4 3.1 64 10.3
2010-07-07 07:19:27 51°16.01 2°56.832 65.4 3.1 64 10.2
2010-07-07 07:19:32 51°16.012 2°56.838 65.3 3.1 64 10.4
2010-07-07 07:19:37 51°16.013 2°56.844 65.2 3 64 10.4
2010-07-07 07:19:42 51°16.015 2°56.85 65.2 3.1 64 10.4
2010-07-07 07:19:47 51°16.017 2°56.856 65.2 3 63 10.3
2010-07-07 07:19:51 51°16.019 2°56.861 65.2 3 64 10.2
2010-07-07 07:19:57 51°16.021 2°56.868 65.2 3 64 10.3
2010-07-07 07:20:02 51°16.023 2°56.874 65.3 3 64 10.3
2010-07-07 07:20:07 51°16.024 2°56.88 65.4 3 64 10.3
2010-07-07 07:20:12 51°16.026 2°56.886 65.4 3 64 10.3
2010-07-07 07:20:17 51°16.028 2°56.892 65.5 3 65 10.4
2010-07-07 07:20:23 51°16.03 2°56.899 65.7 3 64 10.4
2010-07-07 07:20:27 51°16.032 2°56.903 65.8 2.9 63 10.3
2010-07-07 07:20:31 51°16.033 2°56.908 66.1 3 64 10.3
2010-07-07 07:20:37 51°16.035 2°56.915 66.2 3 64 10.2
2010-07-07 07:20:42 51°16.037 2°56.921 66.4 3 65 10.2
2010-07-07 07:20:47 51°16.039 2°56.927 66.6 2.9 64 10.4
2010-07-07 07:20:52 51°16.041 2°56.933 66.6 2.9 64 10.2
2010-07-07 07:20:57 51°16.042 2°56.938 66.9 2.9 64 10.2
2010-07-07 07:21:02 51°16.044 2°56.944 67 2.9 65 10.2
2010-07-07 07:21:07 51°16.046 2°56.95 67.2 2.9 64 10.3
2010-07-07 07:21:12 51°16.047 2°56.956 67.3 2.9 66 10.4
2010-07-07 07:21:17 51°16.049 2°56.962 67.5 2.9 65 10.4
2010-07-07 07:21:22 51°16.051 2°56.967 67.6 2.9 66 10.4
2010-07-07 07:21:27 51°16.053 2°56.973 67.8 2.9 64 10.2
2010-07-07 07:21:32 51°16.054 2°56.979 68.1 2.9 66 10.6
2010-07-07 07:21:37 51°16.056 2°56.985 68.6 2.9 65 10.2
2010-07-07 07:21:42 51°16.057 2°56.991 69.1 2.8 65 10.2
2010-07-07 07:21:47 51°16.059 2°56.997 69.9 2.8 67 10.3
2010-07-07 07:21:51 51°16.06 2°57.001 70.5 2.8 66 10.4
2010-07-07 07:21:57 51°16.062 2°57.008 71.3 2.8 67 10.4
2010-07-07 07:22:02 51°16.064 2°57.014 71.9 2.8 66 10.2
2010-07-07 07:22:07 51°16.065 2°57.02 72.7 2.8 68 10.2
2010-07-07 07:22:12 51°16.067 2°57.025 73.2 2.9 67 10.2
2010-07-07 07:22:17 51°16.068 2°57.031 73.9 2.9 68 10.3
2010-07-07 07:22:23 51°16.07 2°57.038 74.3 2.9 66 10.3
2010-07-07 07:22:27 51°16.071 2°57.043 74.6 2.9 68 10.3
2010-07-07 07:22:31 51°16.072 2°57.048 75 2.9 68 10.4
2010-07-07 07:22:37 51°16.074 2°57.055 75.3 2.9 68 10.4
2010-07-07 07:22:42 51°16.076 2°57.061 75.6 2.9 68 10.3
2010-07-07 07:22:47 51°16.077 2°57.067 75.8 2.9 68 10.3
2010-07-07 07:22:52 51°16.079 2°57.072 76 2.9 68 10.3
2010-07-07 07:22:57 51°16.08 2°57.078 76.1 2.9 68 10.3
2010-07-07 07:23:02 51°16.082 2°57.084 76.1 2.9 69 10.4
2010-07-07 07:23:07 51°16.083 2°57.09 76.2 2.9 68 10.4
2010-07-07 07:23:12 51°16.085 2°57.096 76.2 2.9 69 10.4
2010-07-07 07:23:17 51°16.086 2°57.103 76.1 3 68 10.4
2010-07-07 07:23:22 51°16.088 2°57.109 76.2 2.9 69 10.4
2010-07-07 07:23:27 51°16.089 2°57.115 76.2 2.9 69 10.4
2010-07-07 07:23:32 51°16.091 2°57.121 76 3 69 10.4
2010-07-07 07:23:37 51°16.092 2°57.127 75.9 3 68 10.4
2010-07-07 07:23:42 51°16.094 2°57.133 75.6 3 70 10.4
2010-07-07 07:23:47 51°16.095 2°57.139 75.6 3 67 10.3
2010-07-07 07:23:51 51°16.096 2°57.144 75.4 3 69 10.4
2010-07-07 07:23:57 51°16.098 2°57.152 75.2 3 68 10.4
2010-07-07 07:24:02 51°16.1 2°57.158 75.2 3 69 10.4
2010-07-07 07:24:07 51°16.101 2°57.164 75 3.1 67 10.2
2010-07-07 07:24:12 51°16.103 2°57.171 74.8 3.1 69 10.3
2010-07-07 07:24:17 51°16.104 2°57.177 74.8 3.1 68 10.4
2010-07-07 07:24:22 51°16.106 2°57.183 74.8 3.1 68 10.4
2010-07-07 07:24:27 51°16.108 2°57.19 74.5 3.1 68 10.3
2010-07-07 07:24:31 51°16.109 2°57.195 74.5 3.1 68 10.4
2010-07-07 07:24:37 51°16.111 2°57.203 74.4 3.1 68 10.3
2010-07-07 07:24:42 51°16.113 2°57.209 74.4 3.2 68 10.2
2010-07-07 07:24:47 51°16.114 2°57.216 74.1 3.2 68 10.2
2010-07-07 07:24:52 51°16.116 2°57.222 73.8 3.2 67 10.3
2010-07-07 07:24:57 51°16.118 2°57.229 73 3.1 67 10.3
2010-07-07 07:25:02 51°16.12 2°57.235 71.7 3.1 65 10.3
2010-07-07 07:25:07 51°16.122 2°57.241 70 3.1 65 10.3
2010-07-07 07:25:12 51°16.123 2°57.247 68.2 3.1 65 10.4
2010-07-07 07:25:17 51°16.125 2°57.253 66.1 3.1 63 10.4
2010-07-07 07:25:22 51°16.127 2°57.259 63.9 3.1 62 10.2
2010-07-07 07:25:27 51°16.129 2°57.265 62.1 3.1 61 10.3
2010-07-07 07:25:32 51°16.131 2°57.271 60.3 3.1 62 10.4
2010-07-07 07:25:37 51°16.134 2°57.277 59.1 3.1 60 10.4
2010-07-07 07:25:42 51°16.136 2°57.283 57.6 3.1 61 10.4
2010-07-07 07:25:47 51°16.138 2°57.289 57.4 3.1 60 10.8
2010-07-07 07:25:51 51°16.14 2°57.294 57.9 3.1 62 10.4
2010-07-07 07:25:57 51°16.142 2°57.301 59 3.1 60 10.3
2010-07-07 07:26:02 51°16.144 2°57.308 61.1 3.1 64 10.4
2010-07-07 07:26:07 51°16.146 2°57.314 63.3 3.1 62 10.4
2010-07-07 07:26:12 51°16.148 2°57.32 65.7 3.1 65 10.4
2010-07-07 07:26:17 51°16.15 2°57.326 68.4 3.2 65 10.3
2010-07-07 07:26:22 51°16.151 2°57.333 71.4 3.2 69 10.4
2010-07-07 07:26:27 51°16.153 2°57.339 74.7 3.2 69 10.4
2010-07-07 07:26:31 51°16.154 2°57.345 77.9 3.2 72 10.4
2010-07-07 07:26:37 51°16.156 2°57.353 81.4 3.2 72 10.4
2010-07-07 07:26:42 51°16.157 2°57.359 83.7 3.1 74 10.4
2010-07-07 07:26:47 51°16.158 2°57.366 85.1 3.1 73 10.4
2010-07-07 07:26:52 51°16.159 2°57.372 87 3.1 74 10.4
2010-07-07 07:26:57 51°16.16 2°57.379 88 3 74 10.4
2010-07-07 07:27:02 51°16.161 2°57.386 89.1 3 74 10.4
2010-07-07 07:27:07 51°16.162 2°57.392 89.4 3 76 10.4
2010-07-07 07:27:12 51°16.163 2°57.398 90.1 3 76 10.4
2010-07-07 07:27:17 51°16.164 2°57.405 90.3 3 76 10.4
2010-07-07 07:27:22 51°16.165 2°57.411 90.8 3 75 10.3
2010-07-07 07:27:27 51°16.166 2°57.417 91.5 3 76 10.4
2010-07-07 07:27:32 51°16.167 2°57.424 92.1 2.9 77 10.4
2010-07-07 07:27:37 51°16.168 2°57.43 92.8 2.9 78 10.4
2010-07-07 07:27:42 51°16.169 2°57.436 93.5 2.9 76 10.4
2010-07-07 07:27:47 51°16.17 2°57.443 93.9 2.9 77 10.4
2010-07-07 07:27:52 51°16.171 2°57.449 94.4 2.9 77 10.4
2010-07-07 07:27:57 51°16.172 2°57.455 94.7 2.9 77 10.4
2010-07-07 07:28:02 51°16.173 2°57.461 95.2 2.9 77 10.4
2010-07-07 07:28:07 51°16.174 2°57.467 95.6 2.9 78 10.4
2010-07-07 07:28:12 51°16.175 2°57.474 96 2.9 78 10.4
2010-07-07 07:28:17 51°16.175 2°57.48 96.5 3 78 10.3
2010-07-07 07:28:22 51°16.176 2°57.487 97 3 79 10.3
2010-07-07 07:28:27 51°16.177 2°57.493 97.6 3 80 10.3
2010-07-07 07:28:32 51°16.178 2°57.5 98.1 3 80 10.3
2010-07-07 07:28:37 51°16.178 2°57.506 98.7 3.1 80 10.3
2010-07-07 07:28:42 51°16.179 2°57.513 99.2 3.1 80 10.3
2010-07-07 07:28:47 51°16.18 2°57.52 99.5 3 82 10.4
2010-07-07 07:28:52 51°16.18 2°57.527 99.9 3.1 81 10.3
2010-07-07 07:28:57 51°16.181 2°57.534 100.5 3.2 83 10.2
2010-07-07 07:29:02 51°16.181 2°57.541 101 3.4 84 10.4
2010-07-07 07:29:07 51°16.182 2°57.549 102.2 3.4 86 10.3
2010-07-07 07:29:12 51°16.182 2°57.557 104 3.5 88 10.2
2010-07-07 07:29:17 51°16.182 2°57.564 105.5 3.6 89 10.4
2010-07-07 07:29:22 51°16.182 2°57.573 107.4 3.7 91 10.2
2010-07-07 07:29:27 51°16.182 2°57.581 109.4 3.7 92 10.2
2010-07-07 07:29:32 51°16.181 2°57.589 111.9 3.8 94 10.3
2010-07-07 07:29:37 51°16.181 2°57.598 113.3 3.8 96 10.2
2010-07-07 07:29:42 51°16.18 2°57.606 115.9 3.9 97 10.2
2010-07-07 07:29:47 51°16.179 2°57.615 117.6 3.9 99 10.2
2010-07-07 07:29:52 51°16.178 2°57.623 119.8 4 100 10.2
2010-07-07 07:29:57 51°16.177 2°57.632 121.3 4 102 10.2
2010-07-07 07:30:02 51°16.176 2°57.641 123.5 4.1 104 10.2
2010-07-07 07:30:07 51°16.174 2°57.65 125.1 4.1 106 10.1
2010-07-07 07:30:11 51°16.172 2°57.657 127.4 4.2 109 10.1
2010-07-07 07:30:17 51°16.17 2°57.667 129.1 4.2 110 10.2
2010-07-07 07:30:22 51°16.168 2°57.675 131.5 4.2 113 10.1
2010-07-07 07:30:27 51°16.165 2°57.684 133.6 4.2 115 10.1
2010-07-07 07:30:32 51°16.162 2°57.692 136.1 4.2 118 10.1
2010-07-07 07:30:37 51°16.16 2°57.7 138.5 4.2 120 10
2010-07-07 07:30:42 51°16.157 2°57.708 141.4 4.1 123 9.9
2010-07-07 07:30:47 51°16.153 2°57.715 145 3.9 124 9.9
2010-07-07 07:30:51 51°16.151 2°57.72 147.5 3.6 125 9.9
2010-07-07 07:30:57 51°16.148 2°57.728 149.3 3.5 126 9.9
2010-07-07 07:31:02 51°16.145 2°57.734 151.2 3.3 126 9.9
2010-07-07 07:31:07 51°16.143 2°57.739 152.3 3.2 126 9.9
2010-07-07 07:31:12 51°16.14 2°57.745 153.7 3 126 9.9
2010-07-07 07:31:17 51°16.138 2°57.75 154.6 2.9 125 9.9
2010-07-07 07:31:23 51°16.135 2°57.756 155.6 2.8 127 9.8
2010-07-07 07:31:27 51°16.133 2°57.76 156.7 2.8 125 9.9
2010-07-07 07:31:31 51°16.131 2°57.764 158.3 2.6 127 9.8
2010-07-07 07:31:37 51°16.129 2°57.769 159 2.6 127 9.9
2010-07-07 07:31:42 51°16.127 2°57.774 160.1 2.5 128 9.8
2010-07-07 07:31:47 51°16.125 2°57.778 161.2 2.4 128 9.7
2010-07-07 07:31:52 51°16.123 2°57.782 162.4 2.3 128 9.9
2010-07-07 07:31:57 51°16.121 2°57.786 163.3 2.3 128 9.8
2010-07-07 07:32:02 51°16.119 2°57.79 164.3 2.1 127 9.8
2010-07-07 07:32:07 51°16.118 2°57.793 164.9 2.1 126 9.7
2010-07-07 07:32:12 51°16.116 2°57.797 165.6 2.1 125 9.7
2010-07-07 07:32:17 51°16.114 2°57.801 165.8 2 124 9.8
2010-07-07 07:32:22 51°16.113 2°57.804 166.3 2 124 9.7
2010-07-07 07:32:27 51°16.111 2°57.808 166.4 2 122 9.7
2010-07-07 07:32:31 51°16.11 2°57.811 166.6 1.9 123 9.8
2010-07-07 07:32:37 51°16.109 2°57.815 166.8 1.9 125 9.7
2010-07-07 07:32:42 51°16.107 2°57.819 167.1 2.3 132 9.7
2010-07-07 07:32:47 51°16.104 2°57.822 168.2 2.6 140 9.7
2010-07-07 07:32:52 51°16.1 2°57.825 170.2 3.1 151 9.7
2010-07-07 07:32:57 51°16.095 2°57.828 174.2 3.5 159 9.7
2010-07-07 07:33:02 51°16.09 2°57.83 179 3.6 165 9.6
2010-07-07 07:33:07 51°16.085 2°57.831 183.9 3.8 171 9.7
2010-07-07 07:33:12 51°16.08 2°57.831 188.7 4 180 9.7
2010-07-07 07:33:17 51°16.074 2°57.83 193.7 4.5 186 9.7
2010-07-07 07:33:22 51°16.067 2°57.828 199 4.8 196 9.6
2010-07-07 07:33:27 51°16.06 2°57.823 205.2 5.1 202 9.5
2010-07-07 07:33:32 51°16.054 2°57.816 212.9 5.5 213 9.6
2010-07-07 07:33:37 51°16.048 2°57.808 218.3 5.7 218 9.6
2010-07-07 07:33:42 51°16.042 2°57.799 224 6.1 226 9.6
2010-07-07 07:33:47 51°16.037 2°57.787 229.6 6.3 233 9.6
2010-07-07 07:33:52 51°16.032 2°57.775 235.7 6.6 240 9.6
2010-07-07 07:33:57 51°16.029 2°57.761 241.7 6.8 248 9.5
2010-07-07 07:34:02 51°16.026 2°57.746 247.8 7 255 9.5
2010-07-07 07:34:07 51°16.025 2°57.729 254 7.4 261 9.5
2010-07-07 07:34:12 51°16.025 2°57.711 259.9 7.9 267 9.5
2010-07-07 07:34:17 51°16.026 2°57.692 265.9 8.5 276 9.5
2010-07-07 07:34:22 51°16.029 2°57.673 273.5 9 282 9.5
2010-07-07 07:34:27 51°16.033 2°57.653 278.6 9.3 287 9.5
2010-07-07 07:34:32 51°16.038 2°57.633 284.9 9.7 292 9.5
2010-07-07 07:34:37 51°16.045 2°57.613 290.7 10 296 9.5
2010-07-07 07:34:42 51°16.051 2°57.592 292.3 10.6 295 9.5
2010-07-07 07:34:47 51°16.058 2°57.57 291.3 10.8 294 9.5
2010-07-07 07:34:52 51°16.066 2°57.549 294.6 11.4 301 9.5
2010-07-07 07:34:57 51°16.074 2°57.526 295.5 11.6 299 9.7
2010-07-07 07:35:02 51°16.083 2°57.504 296.9 11.9 304 9.5
2010-07-07 07:35:07 51°16.091 2°57.481 297.9 12 300 9.7
2010-07-07 07:35:12 51°16.101 2°57.459 298.8 12.2 305 9.8
2010-07-07 07:35:17 51°16.11 2°57.436 299.6 12.3 302 10.2
2010-07-07 07:35:22 51°16.119 2°57.413 298.4 12.3 301 9.9
2010-07-07 07:35:27 51°16.128 2°57.389 297.9 12.4 301 9.9
2010-07-07 07:35:32 51°16.136 2°57.365 296.7 12.4 299 10.1
2010-07-07 07:35:37 51°16.145 2°57.341 296.3 12.5 300 10.1
2010-07-07 07:35:42 51°16.153 2°57.317 295.8 12.5 298 10.2
2010-07-07 07:35:47 51°16.161 2°57.292 295.5 12.6 299 10.4
2010-07-07 07:35:52 51°16.17 2°57.268 295.6 12.6 298 10.4
2010-07-07 07:35:57 51°16.178 2°57.244 295.5 12.6 299 10.3
2010-07-07 07:36:02 51°16.187 2°57.219 295.6 12.7 299 10.4
2010-07-07 07:36:07 51°16.195 2°57.195 295.5 12.7 299 10.5
2010-07-07 07:36:12 51°16.204 2°57.17 295.8 12.7 299 10.5
2010-07-07 07:36:17 51°16.212 2°57.146 295.5 12.7 299 10.5
2010-07-07 07:36:22 51°16.221 2°57.121 295.3 12.7 298 10.7
2010-07-07 07:36:27 51°16.229 2°57.096 295.3 12.7 299 10.7
2010-07-07 07:36:32 51°16.238 2°57.072 295.6 12.7 299 10.8
2010-07-07 07:36:37 51°16.246 2°57.047 295.6 12.7 299 10.8
2010-07-07 07:36:42 51°16.254 2°57.022 294.3 12.6 296 11.2
2010-07-07 07:36:47 51°16.261 2°56.997 293.2 12.6 296 10.8
2010-07-07 07:36:52 51°16.269 2°56.972 292.4 12.6 294 10.9
2010-07-07 07:36:57 51°16.276 2°56.946 291.6 12.6 294 11
2010-07-07 07:37:03 51°16.284 2°56.915 291.1 12.6 294 11
2010-07-07 07:37:07 51°16.289 2°56.895 290.4 12.6 293 11.1
2010-07-07 07:37:11 51°16.295 2°56.874 290 12.6 293 11
2010-07-07 07:37:17 51°16.303 2°56.844 289.8 12.6 292 11
2010-07-07 07:37:23 51°16.311 2°56.812 289.5 12.6 292 11.1
2010-07-07 07:37:27 51°16.316 2°56.792 289.4 12.7 292 11.2
2010-07-07 07:37:31 51°16.321 2°56.771 289.5 12.7 293 11.6
2010-07-07 07:37:37 51°16.329 2°56.74 289.7 12.7 292 11.2
2010-07-07 07:37:42 51°16.337 2°56.714 289.8 12.7 293 11.4
2010-07-07 07:37:47 51°16.343 2°56.688 289.9 12.7 293 11.4
2010-07-07 07:37:52 51°16.35 2°56.662 290.2 12.7 294 11.5
2010-07-07 07:37:57 51°16.357 2°56.637 290.1 12.7 293 11.5
2010-07-07 07:38:02 51°16.365 2°56.611 289.9 12.7 294 11.6
2010-07-07 07:38:07 51°16.371 2°56.585 290 12.6 294 11.7
2010-07-07 07:38:12 51°16.378 2°56.559 289.8 12.6 293 11.5
2010-07-07 07:38:17 51°16.385 2°56.534 289.7 12.6 294 11.6
2010-07-07 07:38:22 51°16.392 2°56.508 289.7 12.6 293 11.7
2010-07-07 07:38:27 51°16.399 2°56.483 289.8 12.6 294 11.7
2010-07-07 07:38:32 51°16.406 2°56.457 290 12.6 294 11.7
2010-07-07 07:38:37 51°16.413 2°56.432 290.1 12.6 294 11.5
2010-07-07 07:38:42 51°16.42 2°56.407 290.1 12.6 294 11.7
2010-07-07 07:38:47 51°16.428 2°56.381 290 12.6 294 11.7
2010-07-07 07:38:52 51°16.435 2°56.356 290 12.6 294 11.7
2010-07-07 07:38:57 51°16.443 2°56.331 291.1 12.6 296 11.7
2010-07-07 07:39:02 51°16.451 2°56.306 292.3 12.6 297 11.6
2010-07-07 07:39:07 51°16.458 2°56.281 292.9 12.6 297 11.8
2010-07-07 07:39:11 51°16.465 2°56.262 294 12.6 299 11.7
2010-07-07 07:39:17 51°16.475 2°56.232 294.3 12.6 299 11.7
2010-07-07 07:39:22 51°16.484 2°56.208 294.9 12.6 300 11.7
2010-07-07 07:39:27 51°16.493 2°56.184 295.5 12.6 300 11.9
2010-07-07 07:39:32 51°16.501 2°56.16 295.5 12.6 300 11.7
2010-07-07 07:39:37 51°16.51 2°56.135 295.7 12.6 300 11.8
2010-07-07 07:39:42 51°16.518 2°56.111 295.4 12.6 298 11.5
2010-07-07 07:39:47 51°16.526 2°56.086 293.7 12.5 297 11.7
2010-07-07 07:39:51 51°16.532 2°56.066 292.9 12.5 296 11.7
2010-07-07 07:39:57 51°16.541 2°56.036 292.4 12.6 295 11.8
2010-07-07 07:40:02 51°16.549 2°56.011 291.7 12.5 296 11.8
2010-07-07 07:40:07 51°16.556 2°55.986 291.1 12.5 295 11.8
2010-07-07 07:40:11 51°16.561 2°55.966 290.4 12.5 294 11.5
2010-07-07 07:40:17 51°16.57 2°55.936 290.4 12.5 294 11.8
2010-07-07 07:40:22 51°16.577 2°55.91 290.3 12.5 294 11.8
2010-07-07 07:40:27 51°16.584 2°55.885 290 12.5 294 11.8
2010-07-07 07:40:32 51°16.592 2°55.86 290 12.5 294 12.1
2010-07-07 07:40:37 51°16.599 2°55.834 290 12.5 294 12
2010-07-07 07:40:42 51°16.606 2°55.809 290 12.5 294 11.9
2010-07-07 07:40:47 51°16.613 2°55.784 290.1 12.5 295 11.9
2010-07-07 07:40:51 51°16.619 2°55.764 290.3 12.5 295 12.1
2010-07-07 07:40:57 51°16.628 2°55.734 291 12.6 297 12.2
2010-07-07 07:41:02 51°16.636 2°55.709 292.2 12.6 297 12.1
2010-07-07 07:41:07 51°16.644 2°55.684 292.9 12.6 298 12.2
2010-07-07 07:41:12 51°16.653 2°55.66 293.6 12.6 298 12
2010-07-07 07:41:17 51°16.661 2°55.635 294.2 12.6 299 12.1
2010-07-07 07:41:22 51°16.67 2°55.611 294.3 12.6 299 12
2010-07-07 07:41:27 51°16.678 2°55.587 294.9 12.6 300 12.3
2010-07-07 07:41:32 51°16.687 2°55.562 295 12.6 300 12.3
2010-07-07 07:41:37 51°16.696 2°55.538 295.5 12.6 300 12.2
2010-07-07 07:41:42 51°16.705 2°55.514 295.5 12.7 300 12.3
2010-07-07 07:41:47 51°16.713 2°55.49 295.4 12.7 300 12.3
2010-07-07 07:41:52 51°16.722 2°55.465 295.4 12.6 300 12
2010-07-07 07:41:57 51°16.731 2°55.441 295.6 12.7 301 12.2
2010-07-07 07:42:02 51°16.74 2°55.417 295.7 12.6 300 11.9
2010-07-07 07:42:07 51°16.749 2°55.393 295.7 12.6 300 12.3
2010-07-07 07:42:12 51°16.758 2°55.369 295.7 12.6 300 12
2010-07-07 07:42:17 51°16.767 2°55.345 295.6 12.6 300 11.9
2010-07-07 07:42:22 51°16.775 2°55.32 295.6 12.6 300 11.7
2010-07-07 07:42:27 51°16.784 2°55.296 295.6 12.6 300 11.6
2010-07-07 07:42:32 51°16.793 2°55.272 295.4 12.5 300 11.5
2010-07-07 07:42:37 51°16.802 2°55.248 295.5 12.5 300 11.7
2010-07-07 07:42:42 51°16.811 2°55.225 295.4 12.6 300 11.6
2010-07-07 07:42:47 51°16.819 2°55.2 295.2 12.6 300 11.5
2010-07-07 07:42:52 51°16.828 2°55.176 295.3 12.6 300 11.5
2010-07-07 07:42:57 51°16.837 2°55.152 295.5 12.5 299 11.5
2010-07-07 07:43:02 51°16.845 2°55.127 294 12.4 297 11.5
2010-07-07 07:43:07 51°16.853 2°55.103 293 12.5 298 11.9
2010-07-07 07:43:12 51°16.86 2°55.078 292.4 12.5 296 11.7
2010-07-07 07:43:17 51°16.868 2°55.053 291.6 12.5 296 11.7
2010-07-07 07:43:22 51°16.875 2°55.028 290.9 12.5 294 11.7
2010-07-07 07:43:27 51°16.882 2°55.003 290.3 12.4 295 11.7
2010-07-07 07:43:32 51°16.889 2°54.978 290.1 12.4 294 11.7
2010-07-07 07:43:37 51°16.896 2°54.953 290 12.5 295 11.9
2010-07-07 07:43:42 51°16.903 2°54.928 290 12.4 294 11.7
2010-07-07 07:43:47 51°16.91 2°54.903 289.8 12.4 294 12.1
2010-07-07 07:43:52 51°16.917 2°54.878 289.9 12.5 294 12.3
2010-07-07 07:43:57 51°16.925 2°54.853 290.1 12.5 295 12.5
2010-07-07 07:44:03 51°16.933 2°54.822 290.4 12.5 295 12.8
2010-07-07 07:44:07 51°16.939 2°54.802 290.5 12.5 295 12.8
2010-07-07 07:44:12 51°16.946 2°54.777 290.4 12.5 294 12.9
2010-07-07 07:44:17 51°16.953 2°54.752 290.2 12.5 294 12.9
2010-07-07 07:44:22 51°16.96 2°54.726 289.9 12.5 294 12.9
2010-07-07 07:44:27 51°16.967 2°54.701 289.6 12.5 294 12.9
2010-07-07 07:44:32 51°16.974 2°54.676 289.7 12.5 294 12.8
2010-07-07 07:44:37 51°16.982 2°54.651 290 12.5 295 12.7
2010-07-07 07:44:42 51°16.989 2°54.626 290.2 12.5 294 12.9
2010-07-07 07:44:47 51°16.996 2°54.6 290.3 12.5 294 12.9
2010-07-07 07:44:52 51°17.003 2°54.575 290.1 12.5 294 12.8
2010-07-07 07:44:57 51°17.01 2°54.55 290 12.5 294 12.9
2010-07-07 07:45:02 51°17.017 2°54.524 290.1 12.5 294 12.7
2010-07-07 07:45:07 51°17.024 2°54.499 290.1 12.5 294 12.7
2010-07-07 07:45:12 51°17.031 2°54.474 290.1 12.4 294 12.7
2010-07-07 07:45:17 51°17.037 2°54.451 290 11.5 295 12.5
2010-07-07 07:45:22 51°17.044 2°54.429 290.1 10.6 295 12.6
2010-07-07 07:45:27 51°17.05 2°54.41 290.4 10 297 12.6
2010-07-07 07:45:32 51°17.056 2°54.393 291.1 9.1 299 12.5
2010-07-07 07:45:37 51°17.062 2°54.378 293.8 8.2 305 12.5
2010-07-07 07:45:42 51°17.069 2°54.365 297.5 7.7 309 12.6
2010-07-07 07:45:47 51°17.076 2°54.354 300.6 7.2 313 12.5
2010-07-07 07:45:52 51°17.083 2°54.345 306.5 6.7 322 12.3
2010-07-07 07:45:57 51°17.091 2°54.337 310.9 6.3 326 12.3
2010-07-07 07:46:02 51°17.098 2°54.332 317.5 5.9 335 12.3
2010-07-07 07:46:07 51°17.105 2°54.327 322.8 5.7 338 12.3
2010-07-07 07:46:12 51°17.113 2°54.324 327.7 5.5 344 12.2
2010-07-07 07:46:17 51°17.12 2°54.323 331.9 5.4 351 12.2
2010-07-07 07:46:22 51°17.127 2°54.322 338.2 5.2 356 11.9
2010-07-07 07:46:27 51°17.134 2°54.322 343.5 5.2 -999 11.9
2010-07-07 07:46:32 51°17.141 2°54.323 348.9 5.1 6 11.7
2010-07-07 07:46:37 51°17.148 2°54.324 353.4 5.1 10 11.5
2010-07-07 07:46:42 51°17.155 2°54.327 0.1 5.1 15 11.3
2010-07-07 07:46:47 51°17.161 2°54.331 4.4 5.1 19 11.3
2010-07-07 07:46:52 51°17.168 2°54.336 10.7 5 24 11
2010-07-07 07:46:57 51°17.174 2°54.341 14.7 5 29 10.8
2010-07-07 07:47:02 51°17.18 2°54.347 20.3 4.9 32 10.7
2010-07-07 07:47:07 51°17.185 2°54.354 25.9 4.9 35 10.6
2010-07-07 07:47:12 51°17.191 2°54.361 32 4.9 40 10.3
2010-07-07 07:47:17 51°17.196 2°54.368 36.2 4.9 43 10.1
2010-07-07 07:47:22 51°17.2 2°54.376 41.1 4.9 46 10.4
2010-07-07 07:47:27 51°17.205 2°54.384 45.9 4.9 49 10.1
2010-07-07 07:47:32 51°17.208 2°54.393 51.9 4.7 53 9.9
2010-07-07 07:47:37 51°17.212 2°54.401 55.5 4.6 55 9.9
2010-07-07 07:47:42 51°17.215 2°54.409 59.1 4.5 56 10.1
2010-07-07 07:47:47 51°17.219 2°54.418 60.3 4.4 56 10.1
2010-07-07 07:47:52 51°17.222 2°54.426 61.3 4.4 58 10
2010-07-07 07:47:57 51°17.226 2°54.434 61.9 4.3 57 9.9
2010-07-07 07:48:02 51°17.229 2°54.442 62.7 4.3 59 10.1
2010-07-07 07:48:07 51°17.232 2°54.45 63.5 4.2 59 10
2010-07-07 07:48:11 51°17.234 2°54.457 65.2 4.2 63 9.9
2010-07-07 07:48:17 51°17.237 2°54.467 66.4 4.1 62 10.1
2010-07-07 07:48:22 51°17.24 2°54.474 68.3 4.1 62 10.1
2010-07-07 07:48:27 51°17.242 2°54.482 69.6 4 63 9.9
2010-07-07 07:48:32 51°17.244 2°54.49 70.6 4 63 9.8
2010-07-07 07:48:37 51°17.247 2°54.498 71.4 3.9 65 10.1
2010-07-07 07:48:42 51°17.249 2°54.506 72.1 3.9 65 9.8
2010-07-07 07:48:47 51°17.251 2°54.514 73.1 3.9 66 9.9
2010-07-07 07:48:51 51°17.253 2°54.52 73.5 3.8 65 9.7
2010-07-07 07:48:57 51°17.256 2°54.529 74 3.8 66 9.9
2010-07-07 07:49:02 51°17.258 2°54.537 74.1 3.8 65 9.9
2010-07-07 07:49:07 51°17.26 2°54.545 74.4 3.8 66 9.9
2010-07-07 07:49:12 51°17.262 2°54.552 74.5 3.8 64 9.9
2010-07-07 07:49:17 51°17.264 2°54.56 74.5 3.7 66 9.8
2010-07-07 07:49:23 51°17.267 2°54.569 74.5 3.7 65 10
2010-07-07 07:49:27 51°17.268 2°54.575 74.3 3.7 67 9.9
2010-07-07 07:49:32 51°17.271 2°54.582 74.2 3.7 66 9.8
2010-07-07 07:49:37 51°17.273 2°54.59 74 3.7 66 9.8
2010-07-07 07:49:42 51°17.275 2°54.597 73.9 3.7 64 9.8
2010-07-07 07:49:47 51°17.277 2°54.605 73.6 3.6 66 9.9
2010-07-07 07:49:52 51°17.279 2°54.612 73.5 3.7 65 9.9
2010-07-07 07:49:57 51°17.281 2°54.619 73.2 3.6 65 9.8
2010-07-07 07:50:03 51°17.284 2°54.628 72.9 3.6 64 9.9
2010-07-07 07:50:07 51°17.286 2°54.634 72.7 3.6 65 9.9
2010-07-07 07:50:12 51°17.288 2°54.641 72.4 3.6 65 10.1
2010-07-07 07:50:17 51°17.29 2°54.648 71.9 3.6 64 9.8
2010-07-07 07:50:22 51°17.292 2°54.655 71.3 3.5 64 9.9
2010-07-07 07:50:27 51°17.294 2°54.662 70.8 3.5 64 9.9
2010-07-07 07:50:32 51°17.296 2°54.669 70.1 3.5 63 9.9
2010-07-07 07:50:37 51°17.299 2°54.675 69.4 3.5 62 9.7
2010-07-07 07:50:43 51°17.301 2°54.683 68.4 3.4 61 9.8
2010-07-07 07:50:47 51°17.303 2°54.689 67.3 3.4 60 9.9
2010-07-07 07:50:52 51°17.306 2°54.695 66.1 3.4 59 9.7
2010-07-07 07:50:57 51°17.308 2°54.702 65.4 3.4 59 9.6
2010-07-07 07:51:02 51°17.31 2°54.708 64.1 3.4 59 9.9
2010-07-07 07:51:07 51°17.313 2°54.714 63 3.4 57 9.9
2010-07-07 07:51:12 51°17.316 2°54.72 61.8 3.3 57 9.7
2010-07-07 07:51:17 51°17.318 2°54.727 60.7 3.4 56 9.8
2010-07-07 07:51:22 51°17.32 2°54.733 59.7 3.3 58 9.9
2010-07-07 07:51:27 51°17.323 2°54.739 58.7 3.3 56 9.6
2010-07-07 07:51:32 51°17.326 2°54.745 57.7 3.4 56 9.7
2010-07-07 07:51:37 51°17.328 2°54.751 57.1 3.4 56 9.6
2010-07-07 07:51:42 51°17.331 2°54.757 56.9 3.4 55 9.7
2010-07-07 07:51:47 51°17.334 2°54.763 57 3.4 55 9.7
2010-07-07 07:51:52 51°17.336 2°54.769 57.4 3.3 57 9.7
2010-07-07 07:51:57 51°17.339 2°54.776 58.6 3.3 56 9.7
2010-07-07 07:52:02 51°17.341 2°54.782 60 3.3 58 9.8
2010-07-07 07:52:07 51°17.343 2°54.788 61.6 3.3 58 9.7
2010-07-07 07:52:11 51°17.345 2°54.793 63.3 3.3 59 9.6
2010-07-07 07:52:17 51°17.348 2°54.8 65.1 3.2 60 9.7
2010-07-07 07:52:22 51°17.35 2°54.807 66.8 3.2 61 9.5
2010-07-07 07:52:27 51°17.352 2°54.813 68.2 3.2 61 9.6
2010-07-07 07:52:32 51°17.355 2°54.819 69.6 3.1 62 9.7
2010-07-07 07:52:37 51°17.357 2°54.825 70.4 3.1 61 9.7
2010-07-07 07:52:42 51°17.359 2°54.831 71 3.2 62 9.5
2010-07-07 07:52:47 51°17.361 2°54.837 71.2 3.2 62 9.7
2010-07-07 07:52:51 51°17.363 2°54.842 71.5 3.2 61 9.8
2010-07-07 07:52:57 51°17.365 2°54.85 71.6 3.2 63 9.6
2010-07-07 07:53:02 51°17.367 2°54.856 71.6 3.2 62 9.6
2010-07-07 07:53:07 51°17.369 2°54.862 71.6 3.1 62 9.6
2010-07-07 07:53:12 51°17.371 2°54.868 71.6 3.1 62 9.7
2010-07-07 07:53:17 51°17.373 2°54.875 71.5 3.1 61 9.5
2010-07-07 07:53:22 51°17.375 2°54.881 71.4 3.1 64 9.5
2010-07-07 07:53:27 51°17.377 2°54.887 71.4 3.2 63 9.7
2010-07-07 07:53:31 51°17.378 2°54.892 71.5 3.1 63 9.7
2010-07-07 07:53:37 51°17.381 2°54.899 71.8 3.1 63 9.5
2010-07-07 07:53:42 51°17.382 2°54.906 72.1 3.2 65 9.5
2010-07-07 07:53:47 51°17.385 2°54.912 72.6 3.2 63 9.5
2010-07-07 07:53:52 51°17.386 2°54.918 72.9 3.1 63 9.4
2010-07-07 07:53:57 51°17.388 2°54.924 73.3 3.2 63 9.3
2010-07-07 07:54:03 51°17.391 2°54.932 73.4 3.1 64 9.5
2010-07-07 07:54:07 51°17.392 2°54.937 73.6 3.1 64 9.8
2010-07-07 07:54:12 51°17.394 2°54.943 73.8 3.2 63 9.6
2010-07-07 07:54:17 51°17.396 2°54.949 73.8 3.1 64 9.5
2010-07-07 07:54:22 51°17.398 2°54.956 73.8 3.1 64 9.5
2010-07-07 07:54:27 51°17.4 2°54.962 73.9 3.1 65 9.6
2010-07-07 07:54:32 51°17.402 2°54.968 74 3.1 65 9.6
2010-07-07 07:54:37 51°17.403 2°54.974 74.3 3.2 64 9.6
2010-07-07 07:54:43 51°17.406 2°54.982 74.6 3.2 65 9.5
2010-07-07 07:54:47 51°17.407 2°54.987 74.9 3.2 63 9.5
2010-07-07 07:54:52 51°17.409 2°54.993 75.4 3.1 66 9.5
2010-07-07 07:54:57 51°17.411 2°54.999 75.8 3.1 65 9.5
2010-07-07 07:55:02 51°17.413 2°55.006 76 3.1 66 9.7
2010-07-07 07:55:07 51°17.415 2°55.012 76.5 3.2 64 9.6
2010-07-07 07:55:12 51°17.416 2°55.018 77 3.1 66 9.5
2010-07-07 07:55:17 51°17.418 2°55.024 77.4 3.1 65 9.5
2010-07-07 07:55:22 51°17.42 2°55.031 77.7 3.1 66 9.5
2010-07-07 07:55:27 51°17.422 2°55.037 78.1 3.1 67 9.4
2010-07-07 07:55:32 51°17.424 2°55.043 78.3 3.1 66 9.5
2010-07-07 07:55:37 51°17.425 2°55.049 78.6 3.1 65 9.7
2010-07-07 07:55:42 51°17.427 2°55.056 78.7 3.1 67 9.5
2010-07-07 07:55:47 51°17.429 2°55.062 78.8 3.1 66 9.5
2010-07-07 07:55:52 51°17.431 2°55.068 78.7 3.1 66 9.5
2010-07-07 07:55:57 51°17.432 2°55.074 78.7 3.1 66 9.9
2010-07-07 07:56:02 51°17.434 2°55.08 78.6 3 66 9.5
2010-07-07 07:56:07 51°17.436 2°55.087 78.4 3.1 65 9.5
2010-07-07 07:56:11 51°17.437 2°55.092 78.1 3.1 65 9.4
2010-07-07 07:56:17 51°17.44 2°55.099 77.9 3.1 65 9.3
2010-07-07 07:56:22 51°17.441 2°55.105 77.5 3.1 64 9.3
2010-07-07 07:56:27 51°17.443 2°55.111 77 3.1 64 9.3
2010-07-07 07:56:32 51°17.445 2°55.117 76.4 3.1 63 9.5
2010-07-07 07:56:37 51°17.447 2°55.123 75.8 3.1 64 9.5
2010-07-07 07:56:42 51°17.449 2°55.129 75.2 3.1 63 9.4
2010-07-07 07:56:47 51°17.451 2°55.135 74.4 3 64 9.5
2010-07-07 07:56:51 51°17.452 2°55.14 73.5 3 63 9.3
2010-07-07 07:56:57 51°17.455 2°55.147 72.5 3.1 63 9.5
2010-07-07 07:57:02 51°17.457 2°55.153 71.5 3 63 9.5
2010-07-07 07:57:07 51°17.459 2°55.159 70.6 3.1 62 9.4
2010-07-07 07:57:12 51°17.461 2°55.165 70 3 62 9.5
2010-07-07 07:57:17 51°17.463 2°55.171 69.3 3.1 61 9.2
2010-07-07 07:57:22 51°17.465 2°55.177 69 3.1 61 9.4
2010-07-07 07:57:27 51°17.467 2°55.183 68.6 3.1 61 9.3
2010-07-07 07:57:32 51°17.469 2°55.189 68.6 3.1 61 9.5
2010-07-07 07:57:37 51°17.471 2°55.195 68.6 3.1 61 9.4
2010-07-07 07:57:42 51°17.473 2°55.201 68.7 3.1 61 9.4
2010-07-07 07:57:47 51°17.475 2°55.207 68.7 3.1 61 9.3
2010-07-07 07:57:52 51°17.477 2°55.213 68.8 3.1 62 9.3
2010-07-07 07:57:57 51°17.479 2°55.219 68.9 3.1 61 9.3
2010-07-07 07:58:02 51°17.481 2°55.225 69 3.1 61 9.5
2010-07-07 07:58:07 51°17.484 2°55.231 69.1 3.1 62 9.2
2010-07-07 07:58:12 51°17.486 2°55.237 69.3 3.1 61 9.3
2010-07-07 07:58:17 51°17.488 2°55.243 69.7 3.1 60 9.3
2010-07-07 07:58:22 51°17.49 2°55.249 70 3.1 61 9.4
2010-07-07 07:58:27 51°17.492 2°55.255 70.4 3.1 61 9.2
2010-07-07 07:58:32 51°17.494 2°55.261 70.7 3.1 62 9.3
2010-07-07 07:58:37 51°17.496 2°55.268 70.9 3.1 62 9.3
2010-07-07 07:58:42 51°17.498 2°55.274 71.2 3.1 62 9.3
2010-07-07 07:58:47 51°17.5 2°55.279 71.7 3.1 61 9.3
2010-07-07 07:58:52 51°17.502 2°55.286 72 3.1 63 9.4
2010-07-07 07:58:57 51°17.504 2°55.292 72.2 3.1 63 9.3
2010-07-07 07:59:03 51°17.507 2°55.299 72.7 3.1 63 9.2
2010-07-07 07:59:07 51°17.508 2°55.304 72.9 3.1 62 9.5
2010-07-07 07:59:12 51°17.51 2°55.31 73.3 3.1 62 9.3
2010-07-07 07:59:17 51°17.512 2°55.316 73.7 3.1 63 9.3
2010-07-07 07:59:22 51°17.514 2°55.322 74.1 3.1 63 9.3
2010-07-07 07:59:27 51°17.516 2°55.328 74.3 3.1 63 9.1
2010-07-07 07:59:32 51°17.518 2°55.335 74.8 3.1 63 9.3
2010-07-07 07:59:37 51°17.52 2°55.341 74.9 3.1 63 9.3
2010-07-07 07:59:42 51°17.522 2°55.347 75.1 3.1 65 9.3
2010-07-07 07:59:47 51°17.523 2°55.353 75.4 3.1 65 9.4
2010-07-07 07:59:52 51°17.525 2°55.359 75.6 3.1 65 9.4
2010-07-07 07:59:57 51°17.527 2°55.365 75.7 3.1 64 9.4
2010-07-07 08:00:02 51°17.529 2°55.371 76 3.1 64 9.2
2010-07-07 08:00:07 51°17.531 2°55.377 76.1 3.1 63 9.1
2010-07-07 08:00:12 51°17.533 2°55.384 76.3 3.1 64 9.1
2010-07-07 08:00:17 51°17.535 2°55.39 76.4 3.1 65 9.2
2010-07-07 08:00:22 51°17.536 2°55.396 76.7 3.1 64 9.4
2010-07-07 08:00:27 51°17.538 2°55.402 76.9 3.1 64 9.4
2010-07-07 08:00:32 51°17.54 2°55.408 77.1 3.1 65 9.2
2010-07-07 08:00:37 51°17.542 2°55.415 77.3 3.1 64 9.2
2010-07-07 08:00:43 51°17.544 2°55.422 77.5 3.1 65 9.2
2010-07-07 08:00:47 51°17.546 2°55.427 77.7 3.1 63 9.3
2010-07-07 08:00:52 51°17.547 2°55.433 77.9 3.1 64 9.2
2010-07-07 08:00:57 51°17.549 2°55.44 78.2 3.1 64 9.2
2010-07-07 08:01:02 51°17.551 2°55.446 78.3 3.1 65 9.1
2010-07-07 08:01:07 51°17.553 2°55.452 78.5 3.1 65 9.1
2010-07-07 08:01:12 51°17.555 2°55.458 78.6 3.1 66 9.4
2010-07-07 08:01:17 51°17.556 2°55.464 78.5 3.1 65 9.3
2010-07-07 08:01:23 51°17.559 2°55.472 78.2 3 65 9.1
2010-07-07 08:01:27 51°17.56 2°55.476 77.7 3.1 65 9.2
2010-07-07 08:01:32 51°17.562 2°55.482 77 3 64 9.2
2010-07-07 08:01:37 51°17.564 2°55.488 76.3 3 63 9.1
2010-07-07 08:01:42 51°17.566 2°55.494 75.3 3 64 9.1
2010-07-07 08:01:47 51°17.568 2°55.5 74.5 3.1 62 9.1
2010-07-07 08:01:52 51°17.57 2°55.506 73.4 3 63 9.2
2010-07-07 08:01:57 51°17.572 2°55.512 72.7 3 62 9.3
2010-07-07 08:02:03 51°17.574 2°55.519 71.4 3 62 9.1
2010-07-07 08:02:07 51°17.576 2°55.524 70.5 3.1 61 9.1
2010-07-07 08:02:12 51°17.578 2°55.53 69.4 3 61 9.5
2010-07-07 08:02:17 51°17.58 2°55.536 68.4 3 60 9.1
2010-07-07 08:02:22 51°17.582 2°55.542 67.2 3 59 9.1
2010-07-07 08:02:27 51°17.584 2°55.547 66.1 3 59 9.2
2010-07-07 08:02:32 51°17.587 2°55.553 64.9 3.1 58 9.1
2010-07-07 08:02:37 51°17.589 2°55.559 64 3.1 58 9.1
2010-07-07 08:02:42 51°17.591 2°55.565 63.2 3 58 9
2010-07-07 08:02:47 51°17.594 2°55.57 62.7 3.1 58 8.9
2010-07-07 08:02:52 51°17.596 2°55.576 62.2 3.1 58 9
2010-07-07 08:02:57 51°17.598 2°55.582 61.9 3.1 58 9.1
2010-07-07 08:03:02 51°17.6 2°55.587 61.7 3.1 58 9.1
2010-07-07 08:03:07 51°17.603 2°55.593 61.6 3.1 58 8.9
2010-07-07 08:03:11 51°17.604 2°55.598 61.5 3.1 57 8.9
2010-07-07 08:03:17 51°17.607 2°55.604 61.4 3 58 9
2010-07-07 08:03:22 51°17.61 2°55.61 61.5 3.1 56 9
2010-07-07 08:03:27 51°17.612 2°55.616 61.3 3 57 9.1
2010-07-07 08:03:32 51°17.614 2°55.622 61.3 3.1 57 8.9
2010-07-07 08:03:37 51°17.617 2°55.627 61.2 3.1 57 8.9
2010-07-07 08:03:42 51°17.619 2°55.633 61.1 3.1 57 8.9
2010-07-07 08:03:47 51°17.621 2°55.639 61.1 3.1 57 8.8
2010-07-07 08:03:51 51°17.623 2°55.644 61.1 3.1 57 9
2010-07-07 08:03:57 51°17.626 2°55.651 61.1 3.1 58 9
2010-07-07 08:04:02 51°17.628 2°55.656 61.1 3.1 57 9
2010-07-07 08:04:07 51°17.631 2°55.662 61.2 3.1 58 8.8
2010-07-07 08:04:12 51°17.633 2°55.668 61.4 3.1 57 8.7
2010-07-07 08:04:17 51°17.635 2°55.674 61.3 3.1 57 8.7
2010-07-07 08:04:22 51°17.638 2°55.68 61.4 3.1 56 8.9
2010-07-07 08:04:27 51°17.64 2°55.686 61.4 3.1 57 9
2010-07-07 08:04:31 51°17.642 2°55.691 61.4 3.2 57 8.8
2010-07-07 08:04:37 51°17.645 2°55.698 61.3 3.2 57 8.9
2010-07-07 08:04:42 51°17.647 2°55.704 61.2 3.2 57 8.9
2010-07-07 08:04:47 51°17.65 2°55.71 61 3.2 57 8.8
2010-07-07 08:04:52 51°17.652 2°55.715 61 3.1 57 8.9
2010-07-07 08:04:57 51°17.655 2°55.721 60.9 3.2 56 8.7
2010-07-07 08:05:03 51°17.657 2°55.728 60.8 3.2 57 8.7
2010-07-07 08:05:07 51°17.659 2°55.733 60.6 3.2 57 9
2010-07-07 08:05:12 51°17.662 2°55.739 60.4 3.2 56 8.7
2010-07-07 08:05:17 51°17.664 2°55.745 60.5 3.2 56 8.8
2010-07-07 08:05:22 51°17.667 2°55.751 60.3 3.2 57 8.9
2010-07-07 08:05:27 51°17.669 2°55.757 60.3 3.2 56 8.7
2010-07-07 08:05:32 51°17.671 2°55.763 60.2 3.2 56 8.9
2010-07-07 08:05:37 51°17.674 2°55.768 60.1 3.2 56 8.9
2010-07-07 08:05:42 51°17.676 2°55.774 60 3.2 56 9.1
2010-07-07 08:05:47 51°17.679 2°55.78 60.3 3.2 56 8.7
2010-07-07 08:05:51 51°17.681 2°55.785 60.6 3.2 56 8.6
2010-07-07 08:05:57 51°17.684 2°55.792 61 3.2 56 8.4
2010-07-07 08:06:02 51°17.686 2°55.798 61.3 3.2 58 8.9
2010-07-07 08:06:07 51°17.688 2°55.804 61.7 3.2 57 8.6
2010-07-07 08:06:12 51°17.691 2°55.81 62.1 3.2 57 8.7
2010-07-07 08:06:17 51°17.693 2°55.816 62.7 3.2 57 8.6
2010-07-07 08:06:22 51°17.695 2°55.822 63.4 3.2 58 8.9
2010-07-07 08:06:27 51°17.698 2°55.828 64.5 3.2 58 8.8
2010-07-07 08:06:31 51°17.7 2°55.832 65.2 3.2 58 8.8
2010-07-07 08:06:37 51°17.702 2°55.84 65.7 3.2 59 8.9
2010-07-07 08:06:42 51°17.705 2°55.846 66.9 3.2 60 8.8
2010-07-07 08:06:47 51°17.707 2°55.852 67.5 3.2 59 8.8
2010-07-07 08:06:51 51°17.709 2°55.857 68.4 3.2 60 8.7
2010-07-07 08:06:57 51°17.711 2°55.864 69 3.1 60 8.7
2010-07-07 08:07:02 51°17.713 2°55.87 69.8 3.1 60 8.9
2010-07-07 08:07:07 51°17.716 2°55.876 70.5 3.2 60 8.7
2010-07-07 08:07:12 51°17.718 2°55.882 71.3 3.2 61 8.7
2010-07-07 08:07:17 51°17.72 2°55.888 71.9 3.1 62 8.6
2010-07-07 08:07:22 51°17.722 2°55.894 72.6 3.1 62 8.7
2010-07-07 08:07:27 51°17.724 2°55.901 73.4 3.1 62 8.6
2010-07-07 08:07:32 51°17.726 2°55.907 74.2 3.2 62 8.7
2010-07-07 08:07:37 51°17.727 2°55.913 74.7 3.1 63 8.6
2010-07-07 08:07:43 51°17.73 2°55.92 75.3 3.2 63 8.6
2010-07-07 08:07:47 51°17.731 2°55.925 75.9 3.1 64 8.6
2010-07-07 08:07:52 51°17.733 2°55.932 77.1 3.1 66 8.7
2010-07-07 08:07:57 51°17.735 2°55.938 78.6 3.2 66 8.8
2010-07-07 08:08:02 51°17.737 2°55.945 80.4 3.2 67 8.7
2010-07-07 08:08:07 51°17.738 2°55.952 82.3 3.3 68 8.7
2010-07-07 08:08:12 51°17.74 2°55.958 84.5 3.3 69 8.6
2010-07-07 08:08:17 51°17.742 2°55.965 85.7 3.3 69 8.6
2010-07-07 08:08:23 51°17.743 2°55.974 86.8 3.3 71 8.6
2010-07-07 08:08:27 51°17.745 2°55.979 87.7 3.4 70 8.9
2010-07-07 08:08:32 51°17.746 2°55.986 88.3 3.4 72 8.6
2010-07-07 08:08:37 51°17.748 2°55.994 88.6 3.4 71 8.7
2010-07-07 08:08:43 51°17.749 2°56.003 88.7 3.5 73 8.7
2010-07-07 08:08:47 51°17.75 2°56.009 88.7 3.5 72 8.9
2010-07-07 08:08:52 51°17.752 2°56.016 88.7 3.6 73 8.9
2010-07-07 08:08:57 51°17.754 2°56.024 88.6 3.6 72 8.7
2010-07-07 08:09:02 51°17.755 2°56.031 88.5 3.6 73 8.8
2010-07-07 08:09:07 51°17.756 2°56.039 88.5 3.6 73 8.7
2010-07-07 08:09:12 51°17.758 2°56.047 88.6 3.6 74 8.7
2010-07-07 08:09:17 51°17.759 2°56.055 88.7 3.7 74 8.7
2010-07-07 08:09:22 51°17.76 2°56.063 88.7 3.7 74 9.2
2010-07-07 08:09:27 51°17.762 2°56.071 88.6 3.8 74 8.7
2010-07-07 08:09:32 51°17.763 2°56.079 88.5 3.8 74 8.9
2010-07-07 08:09:37 51°17.765 2°56.088 88.3 3.9 75 9
2010-07-07 08:09:43 51°17.766 2°56.097 87.9 3.9 75 9.1
2010-07-07 08:09:47 51°17.768 2°56.104 87.8 3.9 75 9.1
2010-07-07 08:09:52 51°17.769 2°56.113 87.7 4 74 8.9
2010-07-07 08:09:57 51°17.77 2°56.121 87.4 4 75 9.5
2010-07-07 08:10:02 51°17.772 2°56.13 87.4 4 76 9.2
2010-07-07 08:10:07 51°17.773 2°56.139 88.3 4 76 9.3
2010-07-07 08:10:12 51°17.774 2°56.147 89.6 4.1 77 9.5
2010-07-07 08:10:17 51°17.775 2°56.156 91.5 4.1 78 9.5
2010-07-07 08:10:22 51°17.776 2°56.165 94 4 80 9.5
2010-07-07 08:10:27 51°17.777 2°56.174 96.6 4 82 9.6
2010-07-07 08:10:31 51°17.778 2°56.181 99.3 4 83 9.8
2010-07-07 08:10:37 51°17.778 2°56.191 102 3.9 85 9.9
2010-07-07 08:10:42 51°17.778 2°56.2 104.6 3.9 87 10.3
2010-07-07 08:10:47 51°17.778 2°56.208 107.4 3.9 89 10.1
2010-07-07 08:10:52 51°17.778 2°56.217 110.1 3.8 91 10.3
2010-07-07 08:10:57 51°17.778 2°56.225 112.5 3.8 92 10.4
2010-07-07 08:11:02 51°17.778 2°56.233 114.7 3.8 94 10.4
2010-07-07 08:11:07 51°17.777 2°56.241 116.9 3.7 95 10.5
2010-07-07 08:11:11 51°17.777 2°56.248 118.6 3.7 97 10.6
2010-07-07 08:11:17 51°17.776 2°56.258 120.6 3.7 98 10.8
2010-07-07 08:11:22 51°17.775 2°56.265 122.3 3.6 99 10.8
2010-07-07 08:11:27 51°17.774 2°56.273 123.9 3.6 101 11
2010-07-07 08:11:32 51°17.773 2°56.281 125.5 3.6 102 11
2010-07-07 08:11:37 51°17.772 2°56.289 127.2 3.6 103 10.9
2010-07-07 08:11:42 51°17.77 2°56.297 128.6 3.6 104 10.9
2010-07-07 08:11:47 51°17.769 2°56.304 130.1 3.5 105 11
2010-07-07 08:11:51 51°17.768 2°56.31 131.5 3.6 106 11
2010-07-07 08:11:57 51°17.766 2°56.319 132.9 3.7 109 11.2
2010-07-07 08:12:02 51°17.764 2°56.327 134.6 3.8 110 11.1
2010-07-07 08:12:07 51°17.762 2°56.335 136.4 3.8 113 11.2
2010-07-07 08:12:12 51°17.76 2°56.343 138.5 4 114 11.3
2010-07-07 08:12:17 51°17.757 2°56.351 140.5 4.1 117 11.3
2010-07-07 08:12:22 51°17.754 2°56.359 142.2 4.2 119 11.4
2010-07-07 08:12:27 51°17.751 2°56.367 143.8 4.2 122 11.4
2010-07-07 08:12:32 51°17.748 2°56.375 145.5 4.3 124 11.4
2010-07-07 08:12:37 51°17.744 2°56.383 147.4 4.3 126 11.4
2010-07-07 08:12:43 51°17.74 2°56.392 149.5 4.4 129 11.5
2010-07-07 08:12:47 51°17.737 2°56.397 151.5 4.3 131 11.6
2010-07-07 08:12:52 51°17.733 2°56.404 153.6 4 133 11.5
2010-07-07 08:12:57 51°17.729 2°56.41 155.8 3.8 134 11.6
2010-07-07 08:13:02 51°17.726 2°56.415 157.7 3.6 134 11.5
2010-07-07 08:13:07 51°17.722 2°56.421 159.5 3.4 134 11.5
2010-07-07 08:13:12 51°17.719 2°56.425 161.2 3.3 136 11.6
2010-07-07 08:13:17 51°17.716 2°56.43 162.7 3.1 137 11.6
2010-07-07 08:13:22 51°17.713 2°56.435 164 3 136 11.7
2010-07-07 08:13:27 51°17.71 2°56.439 165.2 2.9 136 11.7